Miami, FL (33186)

3:02 PM EST on December 06, 2016 (GMT -0500)
The Hammocks, FL (West Kendall - Miami) | | Change Station

Elev 6 ft 25.67 °N, 80.44 °W | Updated 50 seconds ago

Scattered Clouds
Scattered Clouds
85.5 °F
Feels Like 92 °F
N
3.0
Wind Variable Wind from SSW
Gusts 5.0 mph

Today
High -- | Low -- °F
--% Chance of Precip.
Yesterday
High -- | Low -- °F
Precip. -- in
Pressure 29.93 in
Visibility 10.0 miles
Clouds Few 2800 ft
Scattered Clouds 7500 ft
Heat Index 92 °F
Dew Point 72 °F
Humidity 64%
Rainfall Not available.
Snow Depth Not available.
6:54 AM 5:30 PM
Waxing Crescent, 44% visible
METAR KTMB 061953Z 22013G17KT 10SM FEW028 SCT075 31/22 A2993 RMK AO2 SLP133 T03060222
Pressure 29.93 in
Visibility 10.0 miles
Clouds Few 2800 ft
Scattered Clouds 7500 ft
Heat Index 92 °F
Dew Point 72 °F
Humidity 64%
Rainfall Not available.
Snow Depth Not available.
6:54 AM 5:30 PM
Waxing Crescent, 44% visible
METAR KTMB 061953Z 22013G17KT 10SM FEW028 SCT075 31/22 A2993 RMK AO2 SLP133 T03060222

10-Day Weather Forecast

Almanac

Astronomy

Dec. 06, 2016 Rise Set
Actual Time
Civil Twilight
Nautical Twilight
Astronomical Twilight
Moon
Length of Visible Light
Length of Day
Tomorrow will be .
, % of the Moon is Illuminated

Today's Extremes

State Highs State Lows

Community

WunderPhotos

Upload Photos

1,956,020 photos uploaded!

WunderBlog® & News

Nearby

Air Quality

  Air Quality AQ Index Pollutant
Not available.

Snow Depth

Station Depth Elevation

Earthquake Activity

City Distance Mag. Time & Date
Minimum magnitude displayed is 2.5.

Coastal Water Temperatures

Place Temperature

Stations

Nearby Weather Stations

Station Location Temp. Windchill Dew Point Humidity Wind Precip. Elev Updated Type
                   

Watches & Warnings

There are currently no watches in effect.